sensor_id;sensor_type;location;lat;lon;timestamp;temperature;humidity
67820;DHT22;54618;52.018;5.576;2023-03-21T00:00:23;18.50;51.00
67820;DHT22;54618;52.018;5.576;2023-03-21T00:02:48;18.50;51.00
67820;DHT22;54618;52.018;5.576;2023-03-21T00:05:14;18.50;51.10
67820;DHT22;54618;52.018;5.576;2023-03-21T00:07:40;18.50;51.10
67820;DHT22;54618;52.018;5.576;2023-03-21T00:10:05;18.50;51.20
67820;DHT22;54618;52.018;5.576;2023-03-21T00:12:32;18.50;51.20
67820;DHT22;54618;52.018;5.576;2023-03-21T00:15:04;18.40;51.10
67820;DHT22;54618;52.018;5.576;2023-03-21T00:17:31;18.40;51.20
67820;DHT22;54618;52.018;5.576;2023-03-21T00:20:01;18.40;51.20
67820;DHT22;54618;52.018;5.576;2023-03-21T00:22:29;18.40;51.20
67820;DHT22;54618;52.018;5.576;2023-03-21T00:24:55;18.40;51.20
67820;DHT22;54618;52.018;5.576;2023-03-21T00:27:21;18.40;51.20
67820;DHT22;54618;52.018;5.576;2023-03-21T00:29:47;18.40;51.30
67820;DHT22;54618;52.018;5.576;2023-03-21T00:32:16;18.40;51.20
67820;DHT22;54618;52.018;5.576;2023-03-21T00:34:42;18.40;51.30
67820;DHT22;54618;52.018;5.576;2023-03-21T00:37:09;18.40;51.40
67820;DHT22;54618;52.018;5.576;2023-03-21T00:39:36;18.40;51.30
67820;DHT22;54618;52.018;5.576;2023-03-21T00:42:02;18.40;51.40
67820;DHT22;54618;52.018;5.576;2023-03-21T00:44:28;18.30;51.30
67820;DHT22;54618;52.018;5.576;2023-03-21T00:46:54;18.40;51.40
67820;DHT22;54618;52.018;5.576;2023-03-21T00:49:19;18.30;51.30
67820;DHT22;54618;52.018;5.576;2023-03-21T00:51:45;18.40;51.30
67820;DHT22;54618;52.018;5.576;2023-03-21T00:54:15;18.40;51.30
67820;DHT22;54618;52.018;5.576;2023-03-21T00:56:40;18.40;51.30
67820;DHT22;54618;52.018;5.576;2023-03-21T00:59:06;18.40;51.30
67820;DHT22;54618;52.018;5.576;2023-03-21T01:01:32;18.40;51.20
67820;DHT22;54618;52.018;5.576;2023-03-21T01:04:00;18.40;51.20
67820;DHT22;54618;52.018;5.576;2023-03-21T01:06:34;18.40;51.80
67820;DHT22;54618;52.018;5.576;2023-03-21T01:09:04;18.40;51.30
67820;DHT22;54618;52.018;5.576;2023-03-21T01:11:30;18.40;51.40
67820;DHT22;54618;52.018;5.576;2023-03-21T01:13:56;18.40;51.40
67820;DHT22;54618;52.018;5.576;2023-03-21T01:16:22;18.40;51.50
67820;DHT22;54618;52.018;5.576;2023-03-21T01:18:48;18.40;51.60
67820;DHT22;54618;52.018;5.576;2023-03-21T01:21:14;18.30;51.70
67820;DHT22;54618;52.018;5.576;2023-03-21T01:23:41;18.30;51.70
67820;DHT22;54618;52.018;5.576;2023-03-21T01:26:08;18.40;51.80
67820;DHT22;54618;52.018;5.576;2023-03-21T01:28:34;18.30;51.80
67820;DHT22;54618;52.018;5.576;2023-03-21T01:31:02;18.30;51.80
67820;DHT22;54618;52.018;5.576;2023-03-21T01:33:29;18.30;51.90
67820;DHT22;54618;52.018;5.576;2023-03-21T01:35:55;18.30;51.90
67820;DHT22;54618;52.018;5.576;2023-03-21T01:38:21;18.30;52.00
67820;DHT22;54618;52.018;5.576;2023-03-21T01:40:48;18.20;51.90
67820;DHT22;54618;52.018;5.576;2023-03-21T01:43:29;18.30;52.00
67820;DHT22;54618;52.018;5.576;2023-03-21T01:46:31;18.30;52.20
67820;DHT22;54618;52.018;5.576;2023-03-21T01:49:09;18.20;52.40
67820;DHT22;54618;52.018;5.576;2023-03-21T01:51:44;18.20;52.10
67820;DHT22;54618;52.018;5.576;2023-03-21T01:54:16;18.20;52.00
67820;DHT22;54618;52.018;5.576;2023-03-21T01:56:44;18.20;52.00
67820;DHT22;54618;52.018;5.576;2023-03-21T01:59:21;18.20;52.00
67820;DHT22;54618;52.018;5.576;2023-03-21T02:01:49;18.20;52.10
67820;DHT22;54618;52.018;5.576;2023-03-21T02:04:17;18.20;52.00
67820;DHT22;54618;52.018;5.576;2023-03-21T02:07:05;18.20;52.00
67820;DHT22;54618;52.018;5.576;2023-03-21T02:09:33;18.10;52.00
67820;DHT22;54618;52.018;5.576;2023-03-21T02:12:00;18.10;52.00
67820;DHT22;54618;52.018;5.576;2023-03-21T02:14:25;18.10;52.00
67820;DHT22;54618;52.018;5.576;2023-03-21T02:25:45;18.10;52.50
67820;DHT22;54618;52.018;5.576;2023-03-21T02:37:12;18.10;52.40
67820;DHT22;54618;52.018;5.576;2023-03-21T02:42:52;18.00;52.40
67820;DHT22;54618;52.018;5.576;2023-03-21T02:45:22;18.00;52.10
67820;DHT22;54618;52.018;5.576;2023-03-21T02:48:00;18.00;52.00
67820;DHT22;54618;52.018;5.576;2023-03-21T02:53:08;18.00;52.00
67820;DHT22;54618;52.018;5.576;2023-03-21T02:55:36;18.00;52.00
67820;DHT22;54618;52.018;5.576;2023-03-21T02:58:07;18.00;52.00
67820;DHT22;54618;52.018;5.576;2023-03-21T03:00:33;18.00;52.00
67820;DHT22;54618;52.018;5.576;2023-03-21T03:02:59;18.00;52.00
67820;DHT22;54618;52.018;5.576;2023-03-21T03:05:30;18.00;52.00
67820;DHT22;54618;52.018;5.576;2023-03-21T03:11:41;18.10;51.60
67820;DHT22;54618;52.018;5.576;2023-03-21T03:16:48;18.40;51.50
67820;DHT22;54618;52.018;5.576;2023-03-21T03:19:29;18.50;51.00
67820;DHT22;54618;52.018;5.576;2023-03-21T03:22:16;18.50;51.00
67820;DHT22;54618;52.018;5.576;2023-03-21T03:24:54;18.60;51.00
67820;DHT22;54618;52.018;5.576;2023-03-21T03:27:26;18.60;51.00
67820;DHT22;54618;52.018;5.576;2023-03-21T03:29:54;18.60;50.80
67820;DHT22;54618;52.018;5.576;2023-03-21T03:32:27;18.60;50.70
67820;DHT22;54618;52.018;5.576;2023-03-21T03:34:55;18.60;50.70
67820;DHT22;54618;52.018;5.576;2023-03-21T03:37:24;18.70;50.70
67820;DHT22;54618;52.018;5.576;2023-03-21T03:40:04;18.70;50.70
67820;DHT22;54618;52.018;5.576;2023-03-21T03:42:40;18.70;50.70
67820;DHT22;54618;52.018;5.576;2023-03-21T03:45:09;18.70;50.70
67820;DHT22;54618;52.018;5.576;2023-03-21T03:47:49;18.80;50.60
67820;DHT22;54618;52.018;5.576;2023-03-21T03:53:27;18.60;50.80
67820;DHT22;54618;52.018;5.576;2023-03-21T03:55:55;18.70;50.70
67820;DHT22;54618;52.018;5.576;2023-03-21T03:58:23;18.80;50.50
67820;DHT22;54618;52.018;5.576;2023-03-21T04:00:50;18.80;50.50
67820;DHT22;54618;52.018;5.576;2023-03-21T04:03:15;18.80;50.40
67820;DHT22;54618;52.018;5.576;2023-03-21T04:05:41;18.90;50.40
67820;DHT22;54618;52.018;5.576;2023-03-21T04:08:11;18.90;50.40
67820;DHT22;54618;52.018;5.576;2023-03-21T04:10:36;18.90;50.40
67820;DHT22;54618;52.018;5.576;2023-03-21T04:13:02;18.90;50.50
67820;DHT22;54618;52.018;5.576;2023-03-21T04:15:28;18.80;50.40
67820;DHT22;54618;52.018;5.576;2023-03-21T04:17:53;18.90;50.40
67820;DHT22;54618;52.018;5.576;2023-03-21T04:20:19;18.80;50.40
67820;DHT22;54618;52.018;5.576;2023-03-21T04:22:44;18.70;50.50
67820;DHT22;54618;52.018;5.576;2023-03-21T04:25:10;18.80;50.50
67820;DHT22;54618;52.018;5.576;2023-03-21T04:27:37;18.90;50.40
67820;DHT22;54618;52.018;5.576;2023-03-21T04:30:03;18.90;50.40
67820;DHT22;54618;52.018;5.576;2023-03-21T04:32:33;18.90;50.30
67820;DHT22;54618;52.018;5.576;2023-03-21T04:35:04;18.90;50.30
67820;DHT22;54618;52.018;5.576;2023-03-21T04:37:30;18.90;50.30
67820;DHT22;54618;52.018;5.576;2023-03-21T04:39:58;18.90;50.30
67820;DHT22;54618;52.018;5.576;2023-03-21T04:42:23;18.90;50.30
67820;DHT22;54618;52.018;5.576;2023-03-21T04:44:49;18.90;50.40
67820;DHT22;54618;52.018;5.576;2023-03-21T04:47:15;18.90;50.40
67820;DHT22;54618;52.018;5.576;2023-03-21T04:49:42;18.80;50.40
67820;DHT22;54618;52.018;5.576;2023-03-21T04:52:07;18.90;50.50
67820;DHT22;54618;52.018;5.576;2023-03-21T04:54:33;18.90;50.30
67820;DHT22;54618;52.018;5.576;2023-03-21T04:56:58;19.00;50.30
67820;DHT22;54618;52.018;5.576;2023-03-21T04:59:24;19.00;50.30
67820;DHT22;54618;52.018;5.576;2023-03-21T05:01:50;18.90;50.20
67820;DHT22;54618;52.018;5.576;2023-03-21T05:04:16;18.80;50.30
67820;DHT22;54618;52.018;5.576;2023-03-21T05:06:43;18.90;50.30
67820;DHT22;54618;52.018;5.576;2023-03-21T05:09:09;18.90;50.20
67820;DHT22;54618;52.018;5.576;2023-03-21T05:11:36;18.90;50.10
67820;DHT22;54618;52.018;5.576;2023-03-21T05:14:06;18.90;50.10
67820;DHT22;54618;52.018;5.576;2023-03-21T05:16:33;18.90;50.30
67820;DHT22;54618;52.018;5.576;2023-03-21T05:19:00;18.80;50.30
67820;DHT22;54618;52.018;5.576;2023-03-21T05:21:29;18.90;50.30
67820;DHT22;54618;52.018;5.576;2023-03-21T05:23:59;19.00;50.20
67820;DHT22;54618;52.018;5.576;2023-03-21T05:26:28;18.90;50.10
67820;DHT22;54618;52.018;5.576;2023-03-21T05:28:54;18.90;50.20
67820;DHT22;54618;52.018;5.576;2023-03-21T05:31:20;18.80;50.30
67820;DHT22;54618;52.018;5.576;2023-03-21T05:33:46;18.90;50.30
67820;DHT22;54618;52.018;5.576;2023-03-21T05:36:13;18.90;50.10
67820;DHT22;54618;52.018;5.576;2023-03-21T05:38:39;18.90;50.10
67820;DHT22;54618;52.018;5.576;2023-03-21T05:41:10;18.90;50.10
67820;DHT22;54618;52.018;5.576;2023-03-21T05:43:36;18.90;50.10
67820;DHT22;54618;52.018;5.576;2023-03-21T05:46:02;18.90;50.10
67820;DHT22;54618;52.018;5.576;2023-03-21T05:48:28;18.90;50.10
67820;DHT22;54618;52.018;5.576;2023-03-21T05:50:53;18.90;50.10
67820;DHT22;54618;52.018;5.576;2023-03-21T05:53:19;18.90;50.10
67820;DHT22;54618;52.018;5.576;2023-03-21T05:55:45;18.90;50.10
67820;DHT22;54618;52.018;5.576;2023-03-21T05:58:10;18.80;50.10
67820;DHT22;54618;52.018;5.576;2023-03-21T06:00:36;18.90;50.20
67820;DHT22;54618;52.018;5.576;2023-03-21T06:03:02;18.90;50.10
67820;DHT22;54618;52.018;5.576;2023-03-21T06:05:27;18.90;50.00
67820;DHT22;54618;52.018;5.576;2023-03-21T06:07:53;18.90;50.00
67820;DHT22;54618;52.018;5.576;2023-03-21T06:10:18;18.90;50.10
67820;DHT22;54618;52.018;5.576;2023-03-21T06:12:44;18.80;50.10
67820;DHT22;54618;52.018;5.576;2023-03-21T06:15:10;18.90;50.10
67820;DHT22;54618;52.018;5.576;2023-03-21T06:17:36;18.90;50.00
67820;DHT22;54618;52.018;5.576;2023-03-21T06:20:02;18.90;50.00
67820;DHT22;54618;52.018;5.576;2023-03-21T06:22:32;18.80;50.00
67820;DHT22;54618;52.018;5.576;2023-03-21T06:24:58;18.70;50.20
67820;DHT22;54618;52.018;5.576;2023-03-21T06:27:24;18.60;50.30
67820;DHT22;54618;52.018;5.576;2023-03-21T06:29:49;18.60;50.40
67820;DHT22;54618;52.018;5.576;2023-03-21T06:32:15;18.50;50.50
67820;DHT22;54618;52.018;5.576;2023-03-21T06:34:41;18.50;50.60
67820;DHT22;54618;52.018;5.576;2023-03-21T06:37:07;18.50;50.70
67820;DHT22;54618;52.018;5.576;2023-03-21T06:39:33;18.80;50.50
67820;DHT22;54618;52.018;5.576;2023-03-21T06:41:59;19.20;49.80
67820;DHT22;54618;52.018;5.576;2023-03-21T06:44:25;19.60;49.20
67820;DHT22;54618;52.018;5.576;2023-03-21T06:46:51;20.00;48.70
67820;DHT22;54618;52.018;5.576;2023-03-21T06:49:17;20.30;48.50
67820;DHT22;54618;52.018;5.576;2023-03-21T06:51:42;20.60;48.20
67820;DHT22;54618;52.018;5.576;2023-03-21T06:54:08;20.70;48.00
67820;DHT22;54618;52.018;5.576;2023-03-21T06:56:34;20.90;47.90
67820;DHT22;54618;52.018;5.576;2023-03-21T06:58:59;21.00;47.80
67820;DHT22;54618;52.018;5.576;2023-03-21T07:01:25;21.10;47.70
67820;DHT22;54618;52.018;5.576;2023-03-21T07:03:55;21.20;47.70
67820;DHT22;54618;52.018;5.576;2023-03-21T07:06:22;21.20;47.70
67820;DHT22;54618;52.018;5.576;2023-03-21T07:08:51;21.30;47.80
67820;DHT22;54618;52.018;5.576;2023-03-21T07:11:17;21.30;47.80
67820;DHT22;54618;52.018;5.576;2023-03-21T07:13:42;21.30;47.80
67820;DHT22;54618;52.018;5.576;2023-03-21T07:16:08;21.40;47.90
67820;DHT22;54618;52.018;5.576;2023-03-21T07:18:34;21.40;47.90
67820;DHT22;54618;52.018;5.576;2023-03-21T07:21:00;21.40;47.90
67820;DHT22;54618;52.018;5.576;2023-03-21T07:23:26;21.40;48.50
67820;DHT22;54618;52.018;5.576;2023-03-21T07:25:52;21.50;47.90
67820;DHT22;54618;52.018;5.576;2023-03-21T07:28:18;21.50;47.80
67820;DHT22;54618;52.018;5.576;2023-03-21T07:30:50;21.50;47.80
67820;DHT22;54618;52.018;5.576;2023-03-21T07:33:16;21.50;47.80
67820;DHT22;54618;52.018;5.576;2023-03-21T07:35:41;21.60;47.80
67820;DHT22;54618;52.018;5.576;2023-03-21T07:38:07;21.60;47.70
67820;DHT22;54618;52.018;5.576;2023-03-21T07:40:32;21.60;47.80
67820;DHT22;54618;52.018;5.576;2023-03-21T07:42:58;21.60;47.70
67820;DHT22;54618;52.018;5.576;2023-03-21T07:45:24;21.60;47.70
67820;DHT22;54618;52.018;5.576;2023-03-21T07:47:51;21.60;47.70
67820;DHT22;54618;52.018;5.576;2023-03-21T07:50:17;21.60;47.70
67820;DHT22;54618;52.018;5.576;2023-03-21T07:52:42;21.70;47.70
67820;DHT22;54618;52.018;5.576;2023-03-21T07:55:09;21.70;47.70
67820;DHT22;54618;52.018;5.576;2023-03-21T07:57:35;21.70;47.60
67820;DHT22;54618;52.018;5.576;2023-03-21T08:00:02;21.70;47.70
67820;DHT22;54618;52.018;5.576;2023-03-21T08:02:28;21.70;47.60
67820;DHT22;54618;52.018;5.576;2023-03-21T08:04:54;21.70;47.50
67820;DHT22;54618;52.018;5.576;2023-03-21T08:07:19;21.80;47.60
67820;DHT22;54618;52.018;5.576;2023-03-21T08:09:45;21.80;47.50
67820;DHT22;54618;52.018;5.576;2023-03-21T08:12:10;21.80;47.50
67820;DHT22;54618;52.018;5.576;2023-03-21T08:14:37;21.80;47.50
67820;DHT22;54618;52.018;5.576;2023-03-21T08:17:03;21.90;47.50
67820;DHT22;54618;52.018;5.576;2023-03-21T08:19:29;21.90;47.40
67820;DHT22;54618;52.018;5.576;2023-03-21T08:21:55;21.90;47.40
67820;DHT22;54618;52.018;5.576;2023-03-21T08:24:24;21.90;47.30
67820;DHT22;54618;52.018;5.576;2023-03-21T08:26:50;21.90;47.30
67820;DHT22;54618;52.018;5.576;2023-03-21T08:29:16;21.90;47.30
67820;DHT22;54618;52.018;5.576;2023-03-21T08:31:41;21.90;47.40
67820;DHT22;54618;52.018;5.576;2023-03-21T08:34:07;21.90;47.50
67820;DHT22;54618;52.018;5.576;2023-03-21T08:36:35;22.00;47.60
67820;DHT22;54618;52.018;5.576;2023-03-21T08:39:02;22.00;47.60
67820;DHT22;54618;52.018;5.576;2023-03-21T08:41:32;21.90;47.70
67820;DHT22;54618;52.018;5.576;2023-03-21T08:43:58;21.80;47.90
67820;DHT22;54618;52.018;5.576;2023-03-21T08:46:23;21.70;48.00
67820;DHT22;54618;52.018;5.576;2023-03-21T08:48:49;21.70;48.10
67820;DHT22;54618;52.018;5.576;2023-03-21T08:51:15;21.70;48.10
67820;DHT22;54618;52.018;5.576;2023-03-21T08:53:40;21.80;48.10
67820;DHT22;54618;52.018;5.576;2023-03-21T08:56:07;21.80;48.70
67820;DHT22;54618;52.018;5.576;2023-03-21T08:58:33;21.80;48.10
67820;DHT22;54618;52.018;5.576;2023-03-21T09:00:58;21.80;48.00
67820;DHT22;54618;52.018;5.576;2023-03-21T09:03:24;21.80;48.00
67820;DHT22;54618;52.018;5.576;2023-03-21T09:05:52;21.90;48.00
67820;DHT22;54618;52.018;5.576;2023-03-21T09:08:18;21.90;48.00
67820;DHT22;54618;52.018;5.576;2023-03-21T09:10:51;21.90;47.90
67820;DHT22;54618;52.018;5.576;2023-03-21T09:13:17;21.90;47.90
67820;DHT22;54618;52.018;5.576;2023-03-21T09:15:43;21.90;47.80
67820;DHT22;54618;52.018;5.576;2023-03-21T09:18:10;22.00;47.80
67820;DHT22;54618;52.018;5.576;2023-03-21T09:20:41;22.00;47.90
67820;DHT22;54618;52.018;5.576;2023-03-21T09:23:08;22.00;47.80
67820;DHT22;54618;52.018;5.576;2023-03-21T09:25:35;22.00;47.80
67820;DHT22;54618;52.018;5.576;2023-03-21T09:28:02;22.00;47.80
67820;DHT22;54618;52.018;5.576;2023-03-21T09:30:35;22.00;47.80
67820;DHT22;54618;52.018;5.576;2023-03-21T09:33:03;22.00;47.80
67820;DHT22;54618;52.018;5.576;2023-03-21T09:35:31;22.00;47.80
67820;DHT22;54618;52.018;5.576;2023-03-21T09:37:57;22.00;47.70
67820;DHT22;54618;52.018;5.576;2023-03-21T09:43:38;22.00;47.60
67820;DHT22;54618;52.018;5.576;2023-03-21T09:49:01;22.00;47.60
67820;DHT22;54618;52.018;5.576;2023-03-21T09:51:32;22.10;47.60
67820;DHT22;54618;52.018;5.576;2023-03-21T09:54:04;22.10;47.70
67820;DHT22;54618;52.018;5.576;2023-03-21T09:56:32;22.10;47.70
67820;DHT22;54618;52.018;5.576;2023-03-21T09:58:59;22.10;48.30
67820;DHT22;54618;52.018;5.576;2023-03-21T10:01:28;22.10;47.70
67820;DHT22;54618;52.018;5.576;2023-03-21T10:03:58;22.10;47.70
67820;DHT22;54618;52.018;5.576;2023-03-21T10:06:25;22.10;47.70
67820;DHT22;54618;52.018;5.576;2023-03-21T10:09:01;22.10;47.70
67820;DHT22;54618;52.018;5.576;2023-03-21T10:11:44;22.10;47.70
67820;DHT22;54618;52.018;5.576;2023-03-21T10:14:39;22.10;47.70
67820;DHT22;54618;52.018;5.576;2023-03-21T10:17:24;22.10;47.50
67820;DHT22;54618;52.018;5.576;2023-03-21T10:20:14;22.10;47.60
67820;DHT22;54618;52.018;5.576;2023-03-21T10:22:42;22.20;47.60
67820;DHT22;54618;52.018;5.576;2023-03-21T10:25:12;22.20;47.70
67820;DHT22;54618;52.018;5.576;2023-03-21T10:27:39;22.20;47.60
67820;DHT22;54618;52.018;5.576;2023-03-21T10:30:05;22.20;47.70
67820;DHT22;54618;52.018;5.576;2023-03-21T10:32:33;22.20;47.60
67820;DHT22;54618;52.018;5.576;2023-03-21T10:34:59;22.20;47.60
67820;DHT22;54618;52.018;5.576;2023-03-21T10:37:26;22.30;47.60
67820;DHT22;54618;52.018;5.576;2023-03-21T10:39:53;22.30;47.60
67820;DHT22;54618;52.018;5.576;2023-03-21T10:42:28;22.30;47.60
67820;DHT22;54618;52.018;5.576;2023-03-21T10:44:55;22.30;47.60
67820;DHT22;54618;52.018;5.576;2023-03-21T10:47:26;22.30;47.60
67820;DHT22;54618;52.018;5.576;2023-03-21T10:49:53;22.30;47.70
67820;DHT22;54618;52.018;5.576;2023-03-21T10:52:21;22.30;47.70
67820;DHT22;54618;52.018;5.576;2023-03-21T10:54:47;22.30;47.70
67820;DHT22;54618;52.018;5.576;2023-03-21T10:57:22;22.30;47.70
67820;DHT22;54618;52.018;5.576;2023-03-21T10:59:56;22.30;47.70
67820;DHT22;54618;52.018;5.576;2023-03-21T11:05:05;22.30;47.70
67820;DHT22;54618;52.018;5.576;2023-03-21T11:07:32;22.20;47.70
67820;DHT22;54618;52.018;5.576;2023-03-21T11:10:00;22.30;47.80
67820;DHT22;54618;52.018;5.576;2023-03-21T11:12:38;22.30;47.80
67820;DHT22;54618;52.018;5.576;2023-03-21T11:15:40;22.30;47.70
67820;DHT22;54618;52.018;5.576;2023-03-21T11:18:17;22.30;47.60
67820;DHT22;54618;52.018;5.576;2023-03-21T11:21:10;22.30;47.70
67820;DHT22;54618;52.018;5.576;2023-03-21T11:23:40;22.30;47.60
67820;DHT22;54618;52.018;5.576;2023-03-21T11:26:10;22.20;47.70
67820;DHT22;54618;52.018;5.576;2023-03-21T11:28:39;22.20;47.70
67820;DHT22;54618;52.018;5.576;2023-03-21T11:31:07;22.20;47.80
67820;DHT22;54618;52.018;5.576;2023-03-21T11:33:39;22.10;47.70
67820;DHT22;54618;52.018;5.576;2023-03-21T11:36:32;22.20;47.80
67820;DHT22;54618;52.018;5.576;2023-03-21T11:39:29;22.10;47.60
67820;DHT22;54618;52.018;5.576;2023-03-21T11:41:56;22.10;47.60
67820;DHT22;54618;52.018;5.576;2023-03-21T11:44:44;22.10;47.70
67820;DHT22;54618;52.018;5.576;2023-03-21T11:47:10;22.10;47.60
67820;DHT22;54618;52.018;5.576;2023-03-21T11:49:36;22.10;47.70
67820;DHT22;54618;52.018;5.576;2023-03-21T11:52:22;22.10;47.70
67820;DHT22;54618;52.018;5.576;2023-03-21T11:57:38;22.20;47.80
67820;DHT22;54618;52.018;5.576;2023-03-21T12:00:17;22.20;47.80
67820;DHT22;54618;52.018;5.576;2023-03-21T12:03:03;22.20;47.80
67820;DHT22;54618;52.018;5.576;2023-03-21T12:05:34;22.20;47.90
67820;DHT22;54618;52.018;5.576;2023-03-21T12:08:23;22.20;48.00
67820;DHT22;54618;52.018;5.576;2023-03-21T12:14:06;22.10;48.20
67820;DHT22;54618;52.018;5.576;2023-03-21T12:19:49;22.10;48.40
67820;DHT22;54618;52.018;5.576;2023-03-21T12:25:17;22.10;48.40
67820;DHT22;54618;52.018;5.576;2023-03-21T12:27:58;22.10;48.30
67820;DHT22;54618;52.018;5.576;2023-03-21T12:30:52;22.10;48.40
67820;DHT22;54618;52.018;5.576;2023-03-21T12:36:36;22.10;48.50
67820;DHT22;54618;52.018;5.576;2023-03-21T12:39:26;22.10;48.50
67820;DHT22;54618;52.018;5.576;2023-03-21T12:44:27;22.10;48.50
67820;DHT22;54618;52.018;5.576;2023-03-21T12:47:12;22.10;48.50
67820;DHT22;54618;52.018;5.576;2023-03-21T12:49:59;22.10;48.50
67820;DHT22;54618;52.018;5.576;2023-03-21T12:52:38;22.10;48.50
67820;DHT22;54618;52.018;5.576;2023-03-21T12:55:15;22.10;48.40
67820;DHT22;54618;52.018;5.576;2023-03-21T12:57:53;22.10;48.30
67820;DHT22;54618;52.018;5.576;2023-03-21T13:00:36;22.20;48.40
67820;DHT22;54618;52.018;5.576;2023-03-21T13:03:39;22.20;48.30
67820;DHT22;54618;52.018;5.576;2023-03-21T13:06:05;22.20;48.30
67820;DHT22;54618;52.018;5.576;2023-03-21T13:08:37;22.20;48.30
67820;DHT22;54618;52.018;5.576;2023-03-21T13:11:09;22.30;48.30
67820;DHT22;54618;52.018;5.576;2023-03-21T13:13:46;22.30;48.20
67820;DHT22;54618;52.018;5.576;2023-03-21T13:24:41;22.40;47.90
67820;DHT22;54618;52.018;5.576;2023-03-21T13:27:34;22.30;48.00
67820;DHT22;54618;52.018;5.576;2023-03-21T13:30:23;22.20;48.20
67820;DHT22;54618;52.018;5.576;2023-03-21T13:33:07;22.20;48.20
67820;DHT22;54618;52.018;5.576;2023-03-21T13:35:39;22.30;48.10
67820;DHT22;54618;52.018;5.576;2023-03-21T13:38:15;22.30;48.10
67820;DHT22;54618;52.018;5.576;2023-03-21T13:43:33;22.20;48.20
67820;DHT22;54618;52.018;5.576;2023-03-21T13:51:10;22.30;48.10
67820;DHT22;54618;52.018;5.576;2023-03-21T13:53:38;22.30;48.10
67820;DHT22;54618;52.018;5.576;2023-03-21T14:03:46;22.30;48.00
67820;DHT22;54618;52.018;5.576;2023-03-21T14:06:12;22.40;48.00
67820;DHT22;54618;52.018;5.576;2023-03-21T14:08:40;22.40;48.10
67820;DHT22;54618;52.018;5.576;2023-03-21T14:11:12;22.40;47.90
67820;DHT22;54618;52.018;5.576;2023-03-21T14:13:41;22.50;48.00
67820;DHT22;54618;52.018;5.576;2023-03-21T14:16:13;22.50;48.00
67820;DHT22;54618;52.018;5.576;2023-03-21T14:18:45;22.40;48.00
67820;DHT22;54618;52.018;5.576;2023-03-21T14:21:24;22.50;48.10
67820;DHT22;54618;52.018;5.576;2023-03-21T14:26:22;22.50;48.20
67820;DHT22;54618;52.018;5.576;2023-03-21T14:28:50;22.50;48.20
67820;DHT22;54618;52.018;5.576;2023-03-21T14:31:17;22.50;48.00
67820;DHT22;54618;52.018;5.576;2023-03-21T14:34:03;22.30;48.20
67820;DHT22;54618;52.018;5.576;2023-03-21T14:36:30;22.20;48.10
67820;DHT22;54618;52.018;5.576;2023-03-21T14:39:01;22.10;48.50
67820;DHT22;54618;52.018;5.576;2023-03-21T14:41:29;22.00;48.50
67820;DHT22;54618;52.018;5.576;2023-03-21T14:44:21;22.00;48.80
67820;DHT22;54618;52.018;5.576;2023-03-21T14:46:53;22.00;48.70
67820;DHT22;54618;52.018;5.576;2023-03-21T14:49:29;22.10;48.70
67820;DHT22;54618;52.018;5.576;2023-03-21T14:51:58;22.10;48.60
67820;DHT22;54618;52.018;5.576;2023-03-21T14:54:24;22.10;48.50
67820;DHT22;54618;52.018;5.576;2023-03-21T14:56:56;22.20;48.50
67820;DHT22;54618;52.018;5.576;2023-03-21T14:59:27;22.20;48.40
67820;DHT22;54618;52.018;5.576;2023-03-21T15:01:56;22.20;48.40
67820;DHT22;54618;52.018;5.576;2023-03-21T15:04:24;22.20;48.40
67820;DHT22;54618;52.018;5.576;2023-03-21T15:06:52;22.10;48.40
67820;DHT22;54618;52.018;5.576;2023-03-21T15:09:20;22.10;48.30
67820;DHT22;54618;52.018;5.576;2023-03-21T15:11:49;22.00;48.30
67820;DHT22;54618;52.018;5.576;2023-03-21T15:14:17;21.90;48.50
67820;DHT22;54618;52.018;5.576;2023-03-21T15:16:43;21.80;48.60
67820;DHT22;54618;52.018;5.576;2023-03-21T15:19:13;21.70;48.60
67820;DHT22;54618;52.018;5.576;2023-03-21T15:21:47;21.60;48.70
67820;DHT22;54618;52.018;5.576;2023-03-21T15:24:24;21.70;48.80
67820;DHT22;54618;52.018;5.576;2023-03-21T15:26:50;21.70;48.70
67820;DHT22;54618;52.018;5.576;2023-03-21T15:29:18;21.80;48.60
67820;DHT22;54618;52.018;5.576;2023-03-21T15:31:46;21.90;48.60
67820;DHT22;54618;52.018;5.576;2023-03-21T15:34:21;21.90;48.50
67820;DHT22;54618;52.018;5.576;2023-03-21T15:36:49;21.90;48.40
67820;DHT22;54618;52.018;5.576;2023-03-21T15:39:19;21.90;48.40
67820;DHT22;54618;52.018;5.576;2023-03-21T15:41:56;21.80;48.30
67820;DHT22;54618;52.018;5.576;2023-03-21T15:44:22;21.70;48.40
67820;DHT22;54618;52.018;5.576;2023-03-21T15:46:50;21.70;48.60
67820;DHT22;54618;52.018;5.576;2023-03-21T15:49:23;21.60;48.60
67820;DHT22;54618;52.018;5.576;2023-03-21T15:52:14;21.50;48.80
67820;DHT22;54618;52.018;5.576;2023-03-21T15:54:44;21.60;48.80
67820;DHT22;54618;52.018;5.576;2023-03-21T15:57:21;21.60;48.70
67820;DHT22;54618;52.018;5.576;2023-03-21T15:59:48;21.70;48.70
67820;DHT22;54618;52.018;5.576;2023-03-21T16:02:16;21.70;48.60
67820;DHT22;54618;52.018;5.576;2023-03-21T16:05:00;21.80;48.70
67820;DHT22;54618;52.018;5.576;2023-03-21T16:07:26;21.80;48.60
67820;DHT22;54618;52.018;5.576;2023-03-21T16:09:58;21.90;48.60
67820;DHT22;54618;52.018;5.576;2023-03-21T16:12:24;21.90;48.40
67820;DHT22;54618;52.018;5.576;2023-03-21T16:14:49;21.80;48.60
67820;DHT22;54618;52.018;5.576;2023-03-21T16:17:35;21.70;48.70
67820;DHT22;54618;52.018;5.576;2023-03-21T16:20:25;21.60;48.80
67820;DHT22;54618;52.018;5.576;2023-03-21T16:22:51;21.50;49.30
67820;DHT22;54618;52.018;5.576;2023-03-21T16:25:16;21.50;49.40
67820;DHT22;54618;52.018;5.576;2023-03-21T16:27:43;21.60;49.40
67820;DHT22;54618;52.018;5.576;2023-03-21T16:30:12;21.60;49.30
67820;DHT22;54618;52.018;5.576;2023-03-21T16:32:39;21.70;49.40
67820;DHT22;54618;52.018;5.576;2023-03-21T16:35:04;21.80;49.40
67820;DHT22;54618;52.018;5.576;2023-03-21T16:37:31;21.90;49.40
67820;DHT22;54618;52.018;5.576;2023-03-21T16:39:56;21.90;49.30
67820;DHT22;54618;52.018;5.576;2023-03-21T16:42:22;22.00;49.20
67820;DHT22;54618;52.018;5.576;2023-03-21T16:44:47;22.10;49.30
67820;DHT22;54618;52.018;5.576;2023-03-21T16:47:16;22.10;49.20
67820;DHT22;54618;52.018;5.576;2023-03-21T16:49:42;22.10;49.40
67820;DHT22;54618;52.018;5.576;2023-03-21T16:52:09;22.00;49.40
67820;DHT22;54618;52.018;5.576;2023-03-21T16:54:39;22.00;49.60
67820;DHT22;54618;52.018;5.576;2023-03-21T16:57:06;22.00;49.70
67820;DHT22;54618;52.018;5.576;2023-03-21T16:59:34;21.90;49.80
67820;DHT22;54618;52.018;5.576;2023-03-21T17:02:00;22.00;49.90
67820;DHT22;54618;52.018;5.576;2023-03-21T17:04:26;22.00;49.80
67820;DHT22;54618;52.018;5.576;2023-03-21T17:06:52;21.90;49.90
67820;DHT22;54618;52.018;5.576;2023-03-21T17:09:22;21.80;50.00
67820;DHT22;54618;52.018;5.576;2023-03-21T17:11:47;21.70;50.20